Terminal Aerodrome Forecast
Issued by NWS

Home | Current Version | Previous Version | Graphics & Text | Print | Product List | Glossary On
Versions: 1 2 3 4 5 6 7 8 9 10 11 12 13 14 15 16
054
FTUS43 KICT 241125
TAFSLN
TAF
KSLN 241125Z 2412/2512 18008KT P6SM VCTS SCT080CB BKN250
     FM241700 05010KT P6SM VCTS BKN080CB
     FM242100 08010KT P6SM SCT080 BKN250
     FM250300 07008KT P6SM SCT100 BKN250=

USA.gov is the U.S. government's official web portal to all federal, state and local government web resources and services.